Time;durP1;ratioP1;P1;durP2;ratioP2;P2;SDS_P1;SDS_P2;PMS_P1;PMS_P2;Temp;Humidity;BMP_temperature;BMP_pressure;BME280_temperature;BME280_humidity;BME280_pressure;Samples;Min_cycle;Max_cycle;Signal;HPM_P1;HPM_P2
2021/12/09 00:02:21;;;;;;;13.15;11.13;;;-8.20;81.10;-9.00;98961.00;;;;4991088;28;92402;-56
2021/12/09 00:04:48;;;;;;;14.55;11.45;;;-8.10;80.50;-9.00;98968.00;;;;4977831;28;92545;-55
2021/12/09 00:07:16;;;;;;;13.40;11.20;;;-8.20;81.00;-9.00;98943.00;;;;4977824;28;92542;-57
2021/12/09 00:09:42;;;;;;;14.05;10.77;;;-8.10;81.20;-8.90;98966.00;;;;4966585;28;92367;-57
2021/12/09 00:12:09;;;;;;;12.98;10.77;;;-8.10;81.40;-8.90;98951.00;;;;4956265;28;93788;-55
2021/12/09 00:14:35;;;;;;;12.32;10.55;;;-8.10;81.10;-8.90;98959.00;;;;4957612;28;94397;-56
2021/12/09 00:17:08;;;;;;;11.73;10.32;;;-8.10;80.90;-8.90;98952.00;;;;4973240;28;92426;-55
2021/12/09 00:19:37;;;;;;;12.70;10.95;;;-8.00;81.10;-8.90;98968.00;;;;4958603;28;91959;-57
2021/12/09 00:22:06;;;;;;;14.05;11.68;;;-8.00;80.30;-8.90;98956.00;;;;4959015;28;93469;-58
2021/12/09 00:24:32;;;;;;;12.75;10.00;;;-8.00;80.30;-8.80;98954.00;;;;4963214;28;92273;-59
2021/12/09 00:26:58;;;;;;;11.57;10.05;;;-8.00;80.30;-8.80;98955.00;;;;4958032;28;92342;-58
2021/12/09 00:29:26;;;;;;;15.25;9.95;;;-8.00;80.20;-8.80;98944.00;;;;4958869;28;91433;-56
2021/12/09 00:31:53;;;;;;;13.40;10.95;;;-8.00;80.30;-8.80;98956.00;;;;4957988;28;92602;-55
2021/12/09 00:34:27;;;;;;;12.32;10.00;;;-8.00;80.30;-8.80;98955.00;;;;4958464;28;92492;-59
2021/12/09 00:36:58;;;;;;;11.73;10.52;;;-8.00;80.20;-8.90;98948.00;;;;4958035;28;93034;-57
2021/12/09 00:39:24;;;;;;;11.97;10.33;;;-8.00;80.30;-8.80;98969.00;;;;4957775;28;92367;-58
2021/12/09 00:41:51;;;;;;;13.60;10.93;;;-8.00;80.30;-8.90;98934.00;;;;4957278;28;91930;-58
2021/12/09 00:44:17;;;;;;;12.77;11.35;;;-8.00;80.40;-8.90;98948.00;;;;4958044;28;92449;-58
2021/12/09 00:46:43;;;;;;;14.52;11.25;;;-8.10;80.90;-8.80;98965.00;;;;4958504;28;92318;-55
2021/12/09 00:49:09;;;;;;;11.95;10.18;;;-8.00;81.20;-8.80;98960.00;;;;4958225;28;92270;-57
2021/12/09 00:51:36;;;;;;;13.48;10.50;;;-8.00;81.00;-8.80;98976.00;;;;4958108;28;93416;-57
2021/12/09 00:54:03;;;;;;;11.93;10.50;;;-8.00;80.80;-8.80;98959.00;;;;4957240;28;92254;-58
2021/12/09 00:56:30;;;;;;;11.95;10.25;;;-8.00;81.00;-8.80;98949.00;;;;4975460;28;92426;-57
2021/12/09 00:58:56;;;;;;;13.82;11.05;;;-8.00;81.00;-8.90;98937.00;;;;4977755;28;92676;-58
2021/12/09 01:01:23;;;;;;;12.40;10.40;;;-8.00;81.40;-8.80;98945.00;;;;4992210;28;93589;-56
2021/12/09 01:03:50;;;;;;;13.60;11.60;;;-8.00;81.60;-8.90;98953.00;;;;4978950;28;93252;-58
2021/12/09 01:06:17;;;;;;;12.00;9.98;;;-8.00;81.70;-8.80;98962.00;;;;4981059;28;92013;-56
2021/12/09 01:08:45;;;;;;;12.43;9.90;;;-8.00;81.50;-8.90;98973.00;;;;4980594;28;92068;-58
2021/12/09 01:11:12;;;;;;;11.32;10.07;;;-8.00;81.70;-8.80;98957.00;;;;4981651;28;93269;-57
2021/12/09 01:13:41;;;;;;;12.48;10.23;;;-8.00;81.50;-8.80;98968.00;;;;4996342;28;94751;-57
2021/12/09 01:16:08;;;;;;;11.75;9.52;;;-8.00;81.60;-8.80;98968.00;;;;4980647;28;92025;-58
2021/12/09 01:18:36;;;;;;;11.63;10.32;;;-8.00;81.40;-8.80;98974.00;;;;4980887;28;91351;-56
2021/12/09 01:21:03;;;;;;;13.77;9.20;;;-8.00;81.30;-8.80;98972.00;;;;4980587;28;92681;-55
2021/12/09 01:23:31;;;;;;;12.43;10.77;;;-8.00;81.20;-8.80;98958.00;;;;4974947;28;92385;-57
2021/12/09 01:26:01;;;;;;;12.70;10.88;;;-8.00;81.30;-8.80;98964.00;;;;4995694;28;93029;-56
2021/12/09 01:28:32;;;;;;;14.27;11.33;;;-8.00;81.30;-8.80;98971.00;;;;4981340;28;92020;-57
2021/12/09 01:31:03;;;;;;;12.23;10.90;;;-8.00;81.40;-8.80;98963.00;;;;4979487;28;95705;-56
2021/12/09 01:33:31;;;;;;;13.43;10.57;;;-8.00;81.40;-8.80;98968.00;;;;4980519;28;92534;-56
2021/12/09 01:35:58;;;;;;;13.20;10.77;;;-8.00;81.30;-8.80;98973.00;;;;4980447;28;92269;-58
2021/12/09 01:38:28;;;;;;;11.73;10.52;;;-7.90;81.40;-8.80;98965.00;;;;4980726;28;92440;-55
2021/12/09 01:40:55;;;;;;;12.30;10.43;;;-8.00;81.20;-8.80;98971.00;;;;4980372;28;92714;-56
2021/12/09 01:43:23;;;;;;;11.43;9.90;;;-7.90;81.50;-8.70;98977.00;;;;4980702;28;93476;-58
2021/12/09 01:46:01;;;;;;;11.70;10.40;;;-7.90;81.10;-8.70;98988.00;;;;4976820;28;92140;-59
2021/12/09 01:48:27;;;;;;;11.13;9.70;;;-7.90;80.60;-8.70;98983.00;;;;4965904;28;92864;-60
2021/12/09 01:50:53;;;;;;;10.82;9.45;;;-7.90;80.30;-8.70;98977.00;;;;4968020;28;94151;-59
2021/12/09 01:53:19;;;;;;;11.85;9.73;;;-7.90;80.30;-8.70;98953.00;;;;4977567;28;93007;-59
2021/12/09 01:55:45;;;;;;;11.45;9.35;;;-7.80;80.50;-8.60;98963.00;;;;4966371;28;92099;-56
2021/12/09 01:58:11;;;;;;;11.40;9.75;;;-7.80;80.50;-8.60;98967.00;;;;4972796;28;92729;-58
2021/12/09 02:00:38;;;;;;;10.57;9.48;;;-7.80;80.40;-8.60;98984.00;;;;4961278;28;93720;-57
2021/12/09 02:03:05;;;;;;;11.93;9.43;;;-7.80;80.20;-8.60;98985.00;;;;4961007;28;92817;-56
2021/12/09 02:05:33;;;;;;;11.05;9.38;;;-7.80;80.20;-8.60;98974.00;;;;4961060;28;92292;-60
2021/12/09 02:07:59;;;;;;;11.95;10.02;;;-7.80;80.40;-8.60;98986.00;;;;4960229;28;91580;-60
2021/12/09 02:10:27;;;;;;;11.18;9.55;;;-7.80;80.00;-8.50;98990.00;;;;4959769;28;93889;-61
2021/12/09 02:12:53;;;;;;;11.85;10.52;;;-7.80;80.10;-8.50;98985.00;;;;4976089;28;92965;-61
2021/12/09 02:15:22;;;;;;;11.00;8.95;;;-7.70;80.10;-8.50;98984.00;;;;4961030;28;93337;-61
2021/12/09 02:17:49;;;;;;;10.82;9.30;;;-7.70;79.90;-8.50;98985.00;;;;4980352;28;92063;-61
2021/12/09 02:20:18;;;;;;;10.23;9.10;;;-7.70;79.70;-8.50;98997.00;;;;4979885;28;93727;-61
2021/12/09 02:22:47;;;;;;;10.48;8.80;;;-7.70;79.80;-8.50;98996.00;;;;4973090;28;92317;-61
2021/12/09 02:25:16;;;;;;;10.25;8.93;;;-7.70;79.60;-8.40;98990.00;;;;4977320;28;91982;-61
2021/12/09 02:27:43;;;;;;;12.07;9.68;;;-7.70;79.40;-8.40;99016.00;;;;4979347;28;92074;-60
2021/12/09 02:30:11;;;;;;;11.02;9.55;;;-7.60;79.30;-8.40;99006.00;;;;4978869;28;93618;-60
2021/12/09 02:32:37;;;;;;;11.38;9.30;;;-7.60;78.90;-8.40;98995.00;;;;4980490;28;93547;-61
2021/12/09 02:35:04;;;;;;;11.88;9.52;;;-7.60;79.00;-8.40;99013.00;;;;4980197;28;92362;-60
2021/12/09 02:37:31;;;;;;;11.98;9.65;;;-7.60;78.90;-8.40;99016.00;;;;4978984;28;92207;-61
2021/12/09 02:39:57;;;;;;;11.57;9.15;;;-7.60;78.90;-8.40;99003.00;;;;4978073;28;94643;-61
2021/12/09 02:42:26;;;;;;;10.23;9.02;;;-7.60;78.80;-8.40;99024.00;;;;4995491;28;93173;-60
2021/12/09 02:44:55;;;;;;;10.68;8.68;;;-7.60;78.70;-8.40;99021.00;;;;4980286;28;92057;-61
2021/12/09 02:47:22;;;;;;;10.85;8.90;;;-7.60;78.60;-8.40;99023.00;;;;4978994;28;92148;-61
2021/12/09 02:49:48;;;;;;;10.80;9.13;;;-7.60;78.70;-8.40;99013.00;;;;4978625;28;92664;-61
2021/12/09 02:52:14;;;;;;;10.75;8.82;;;-7.60;78.40;-8.40;99026.00;;;;4979944;28;92312;-61
2021/12/09 02:54:41;;;;;;;10.57;8.85;;;-7.60;78.50;-8.40;99023.00;;;;4980305;28;92341;-60
2021/12/09 02:57:09;;;;;;;10.48;9.00;;;-7.60;78.50;-8.40;99020.00;;;;4963248;28;91334;-57
2021/12/09 02:59:36;;;;;;;9.93;8.23;;;-7.60;78.30;-8.30;99023.00;;;;4960274;28;92769;-57
2021/12/09 03:02:05;;;;;;;11.73;9.57;;;-7.50;78.40;-8.40;99020.00;;;;4959789;28;92395;-58
2021/12/09 03:04:42;;;;;;;11.60;9.45;;;-7.60;78.00;-8.40;99029.00;;;;4959028;28;93042;-58
2021/12/09 03:07:18;;;;;;;10.32;8.68;;;-7.60;78.00;-8.30;99033.00;;;;4960023;28;92541;-61
2021/12/09 03:09:50;;;;;;;12.48;8.93;;;-7.50;78.10;-8.30;99032.00;;;;4959537;28;92695;-61
2021/12/09 03:12:29;;;;;;;10.30;8.43;;;-7.60;77.80;-8.40;99041.00;;;;4959844;28;93516;-59
2021/12/09 03:14:56;;;;;;;12.50;9.80;;;-7.60;77.80;-8.40;99034.00;;;;4960320;28;91968;-61
2021/12/09 03:17:23;;;;;;;11.57;9.10;;;-7.60;77.70;-8.40;99038.00;;;;4978240;28;91986;-57
2021/12/09 03:19:50;;;;;;;12.48;9.63;;;-7.60;77.60;-8.40;99038.00;;;;4994719;28;95287;-58
2021/12/09 03:22:18;;;;;;;12.27;9.10;;;-7.60;77.70;-8.40;99050.00;;;;4976623;28;92712;-53
2021/12/09 03:24:44;;;;;;;11.18;9.07;;;-7.60;77.60;-8.30;99044.00;;;;4964569;28;92513;-58
2021/12/09 03:27:10;;;;;;;11.35;9.13;;;-7.60;77.30;-8.40;99040.00;;;;4959240;28;92152;-59
2021/12/09 03:29:38;;;;;;;11.68;9.60;;;-7.60;77.10;-8.40;99051.00;;;;4958907;28;94650;-58
2021/12/09 03:32:10;;;;;;;12.52;9.13;;;-7.60;77.10;-8.30;99053.00;;;;4959652;28;93287;-60
2021/12/09 03:34:40;;;;;;;11.90;8.65;;;-7.60;77.40;-8.40;99055.00;;;;4959891;28;91949;-61
2021/12/09 03:37:11;;;;;;;12.55;9.85;;;-7.60;77.20;-8.40;99071.00;;;;4959969;28;92030;-58
2021/12/09 03:39:40;;;;;;;12.90;10.07;;;-7.60;77.10;-8.40;99064.00;;;;4959393;28;93762;-59
2021/12/09 03:42:13;;;;;;;11.25;9.05;;;-7.60;77.10;-8.40;99057.00;;;;4958588;28;92265;-60
2021/12/09 03:44:40;;;;;;;11.50;8.98;;;-7.60;77.10;-8.40;99063.00;;;;4960165;28;91891;-58
2021/12/09 03:47:11;;;;;;;12.65;9.73;;;-7.60;77.10;-8.40;99067.00;;;;4959655;28;91548;-60
2021/12/09 03:49:38;;;;;;;13.75;9.23;;;-7.60;77.20;-8.50;99047.00;;;;4958954;28;93706;-60
2021/12/09 03:52:05;;;;;;;12.07;9.50;;;-7.70;77.00;-8.50;99056.00;;;;4974761;28;92543;-57
2021/12/09 03:54:31;;;;;;;12.48;9.68;;;-7.70;77.00;-8.50;99064.00;;;;4978719;28;93320;-61
2021/12/09 03:56:58;;;;;;;12.35;9.77;;;-7.70;77.00;-8.50;99061.00;;;;4978778;28;92402;-62
2021/12/09 03:59:24;;;;;;;12.77;9.35;;;-7.70;77.00;-8.60;99059.00;;;;4978755;28;92753;-61
2021/12/09 04:01:50;;;;;;;11.45;8.98;;;-7.70;77.00;-8.60;99081.00;;;;4977854;28;94253;-61
2021/12/09 04:04:17;;;;;;;13.57;10.27;;;-7.80;77.00;-8.60;99079.00;;;;4978656;28;92399;-61
2021/12/09 04:06:45;;;;;;;13.68;9.68;;;-7.80;76.90;-8.60;99083.00;;;;4977638;28;92036;-54
2021/12/09 04:09:14;;;;;;;13.10;9.95;;;-7.80;76.80;-8.70;99059.00;;;;4977876;28;93738;-58
2021/12/09 04:11:40;;;;;;;14.43;10.63;;;-7.80;76.90;-8.70;99072.00;;;;4979128;28;91317;-53
2021/12/09 04:14:07;;;;;;;13.10;10.65;;;-7.90;76.90;-8.70;99066.00;;;;4978236;28;92714;-55
2021/12/09 04:16:35;;;;;;;14.95;10.95;;;-7.90;77.20;-8.70;99074.00;;;;4966419;28;92418;-60
2021/12/09 04:19:03;;;;;;;13.75;10.25;;;-7.80;77.40;-8.70;99076.00;;;;4957498;28;93572;-61
2021/12/09 04:21:30;;;;;;;14.15;10.02;;;-7.90;77.10;-8.70;99084.00;;;;4957853;28;93218;-56
2021/12/09 04:23:56;;;;;;;13.95;10.45;;;-7.90;76.90;-8.70;99082.00;;;;4957427;28;92219;-59
2021/12/09 04:26:22;;;;;;;14.02;10.52;;;-7.90;77.20;-8.70;99077.00;;;;4958210;28;92481;-58
2021/12/09 04:28:49;;;;;;;14.88;10.45;;;-7.90;77.40;-8.70;99074.00;;;;4957448;28;92683;-56
2021/12/09 04:31:17;;;;;;;13.80;10.52;;;-7.90;77.60;-8.60;99082.00;;;;4958073;28;92349;-60
2021/12/09 04:33:44;;;;;;;14.75;10.48;;;-7.90;77.60;-8.60;99069.00;;;;4957805;28;92044;-59
2021/12/09 04:36:10;;;;;;;11.30;9.30;;;-7.80;77.40;-8.60;99077.00;;;;4958294;28;91295;-60
2021/12/09 04:38:37;;;;;;;14.23;10.77;;;-7.80;77.60;-8.60;99082.00;;;;4959520;28;93830;-61
2021/12/09 04:41:04;;;;;;;12.93;10.48;;;-7.80;77.50;-8.70;99060.00;;;;4960069;28;92489;-59
2021/12/09 04:43:30;;;;;;;12.88;10.38;;;-7.90;77.60;-8.60;99079.00;;;;4960781;28;92898;-57
2021/12/09 04:45:59;;;;;;;12.80;10.27;;;-7.80;78.00;-8.60;99051.00;;;;4960309;28;92331;-60
2021/12/09 04:48:26;;;;;;;14.10;10.48;;;-7.80;78.00;-8.60;99059.00;;;;4957628;28;92746;-58
2021/12/09 04:50:52;;;;;;;14.13;10.95;;;-7.80;77.70;-8.60;99062.00;;;;4970195;28;93653;-60
2021/12/09 04:53:18;;;;;;;16.48;11.70;;;-7.80;77.70;-8.60;99055.00;;;;4960956;28;92206;-60
2021/12/09 04:55:44;;;;;;;16.45;11.75;;;-7.80;77.90;-8.60;99071.00;;;;4960903;28;92137;-58
2021/12/09 04:58:10;;;;;;;13.80;10.23;;;-7.80;77.80;-8.60;99085.00;;;;4959434;28;92520;-58
2021/12/09 05:00:40;;;;;;;14.00;10.77;;;-7.70;78.20;-8.60;99058.00;;;;4960988;28;91760;-59
2021/12/09 05:03:11;;;;;;;14.48;10.07;;;-7.70;78.20;-8.50;99073.00;;;;4961005;28;92078;-59
2021/12/09 05:05:45;;;;;;;14.90;11.17;;;-7.70;78.30;-8.50;99070.00;;;;4960589;28;92488;-57
2021/12/09 05:08:18;;;;;;;13.43;10.40;;;-7.70;78.30;-8.40;99075.00;;;;4975640;28;93753;-55
2021/12/09 05:13:26;;;;;;;13.25;10.93;;;-7.60;78.40;-8.40;99076.00;;;;4961046;28;92017;-60
2021/12/09 05:15:56;;;;;;;13.27;10.25;;;-7.60;78.30;-8.40;99072.00;;;;4960378;28;92460;-56
2021/12/09 05:18:25;;;;;;;12.32;10.65;;;-7.60;78.00;-8.40;99076.00;;;;4975027;28;93781;-60
2021/12/09 05:20:52;;;;;;;13.88;10.43;;;-7.60;78.00;-8.40;99089.00;;;;4960437;28;93209;-61
2021/12/09 05:23:20;;;;;;;12.63;10.45;;;-7.60;78.10;-8.40;99085.00;;;;4981952;28;92030;-60
2021/12/09 05:25:47;;;;;;;13.80;11.02;;;-7.60;78.40;-8.40;99101.00;;;;4960994;28;91328;-56
2021/12/09 05:28:16;;;;;;;15.65;11.20;;;-7.50;78.20;-8.30;99089.00;;;;4968414;28;92842;-58
2021/12/09 05:33:33;;;;;;;14.35;10.88;;;-7.60;78.20;-8.40;99097.00;;;;4980215;28;92972;-55
2021/12/09 05:36:00;;;;;;;13.25;11.05;;;-7.60;79.00;-8.40;99100.00;;;;4980157;28;92278;-55
2021/12/09 05:38:27;;;;;;;13.77;10.45;;;-7.60;78.20;-8.40;99104.00;;;;4980195;28;92705;-60
2021/12/09 05:40:54;;;;;;;14.82;10.98;;;-7.60;78.10;-8.40;99100.00;;;;4979139;28;93891;-60
2021/12/09 05:43:21;;;;;;;12.05;9.52;;;-7.60;78.50;-8.40;99101.00;;;;4978869;28;92316;-59
2021/12/09 05:45:49;;;;;;;13.50;10.73;;;-7.60;78.50;-8.40;99101.00;;;;4980591;28;92691;-59
2021/12/09 05:48:16;;;;;;;13.63;10.18;;;-7.50;78.60;-8.30;99100.00;;;;4979632;28;93156;-59
2021/12/09 05:50:43;;;;;;;11.68;9.63;;;-7.50;78.60;-8.40;99104.00;;;;4974400;28;92265;-60
2021/12/09 05:53:10;;;;;;;15.68;10.40;;;-7.50;78.70;-8.30;99103.00;;;;4961133;28;92059;-61
2021/12/09 05:55:38;;;;;;;11.90;9.90;;;-7.50;78.80;-8.20;99103.00;;;;4978977;28;91972;-60
2021/12/09 05:58:04;;;;;;;12.00;8.52;;;-7.50;78.80;-8.20;99102.00;;;;4980035;28;94617;-61
2021/12/09 06:00:30;;;;;;;12.43;9.82;;;-7.40;78.80;-8.20;99107.00;;;;4979523;28;94353;-60
2021/12/09 06:02:57;;;;;;;12.88;9.13;;;-7.40;78.60;-8.10;99112.00;;;;4980755;28;92316;-59
2021/12/09 06:05:24;;;;;;;13.82;9.40;;;-7.30;78.60;-8.10;99115.00;;;;4980226;28;91946;-55
2021/12/09 06:07:50;;;;;;;11.88;8.88;;;-7.30;78.40;-8.10;99121.00;;;;4980166;28;93749;-61
2021/12/09 06:10:16;;;;;;;12.50;9.40;;;-7.30;78.20;-8.10;99141.00;;;;4979657;28;92354;-63
2021/12/09 06:12:42;;;;;;;11.25;8.38;;;-7.30;78.30;-8.00;99107.00;;;;4981071;28;92358;-61
2021/12/09 06:15:09;;;;;;;11.20;8.90;;;-7.30;78.20;-8.00;99119.00;;;;4980369;28;91470;-60
2021/12/09 06:17:35;;;;;;;11.57;8.88;;;-7.20;77.90;-8.10;99129.00;;;;4960521;28;93818;-61
2021/12/09 06:20:03;;;;;;;11.10;8.93;;;-7.20;77.90;-8.00;99121.00;;;;4960416;28;93964;-60
2021/12/09 06:22:29;;;;;;;11.60;8.80;;;-7.20;77.80;-8.00;99136.00;;;;4962270;28;93294;-59
2021/12/09 06:24:55;;;;;;;9.77;8.50;;;-7.20;77.70;-7.90;99125.00;;;;4962155;28;92394;-58
2021/12/09 06:27:21;;;;;;;11.30;8.70;;;-7.10;78.00;-7.90;99131.00;;;;4959566;28;93336;-60
2021/12/09 06:29:47;;;;;;;11.23;8.15;;;-7.10;77.70;-7.80;99120.00;;;;4960466;28;92392;-62
2021/12/09 06:32:13;;;;;;;11.45;8.63;;;-7.10;77.60;-7.80;99140.00;;;;4960508;28;92536;-62
2021/12/09 06:34:39;;;;;;;12.52;8.88;;;-7.10;77.60;-7.80;99149.00;;;;4960466;28;92021;-58
2021/12/09 06:37:06;;;;;;;11.75;8.18;;;-7.00;77.70;-7.80;99152.00;;;;4959861;28;93793;-58
2021/12/09 06:39:32;;;;;;;12.25;9.02;;;-7.00;77.70;-7.70;99163.00;;;;4960700;28;92689;-61
2021/12/09 06:41:58;;;;;;;10.80;7.82;;;-6.90;77.80;-7.60;99152.00;;;;4959977;28;92214;-61
2021/12/09 06:44:24;;;;;;;11.55;8.02;;;-6.90;77.60;-7.60;99153.00;;;;4960192;28;92346;-61
2021/12/09 06:46:51;;;;;;;11.70;8.30;;;-6.90;77.40;-7.60;99148.00;;;;4959396;28;93461;-53
2021/12/09 06:49:17;;;;;;;10.15;8.02;;;-6.80;77.30;-7.60;99152.00;;;;4960185;28;93070;-56
2021/12/09 06:51:43;;;;;;;12.95;9.23;;;-6.80;77.40;-7.50;99150.00;;;;4959908;28;92082;-59
2021/12/09 06:54:09;;;;;;;14.35;9.65;;;-6.80;77.30;-7.50;99153.00;;;;4959833;28;92013;-58
2021/12/09 06:56:35;;;;;;;11.98;8.63;;;-6.70;77.30;-7.50;99164.00;;;;4970930;28;92538;-57
2021/12/09 06:59:02;;;;;;;11.43;8.85;;;-6.70;77.20;-7.40;99170.00;;;;4978807;28;92638;-58
2021/12/09 07:01:28;;;;;;;13.90;9.18;;;-6.70;77.20;-7.40;99177.00;;;;4978173;28;92094;-58
2021/12/09 07:03:55;;;;;;;13.23;9.30;;;-6.60;77.70;-7.40;99174.00;;;;4979705;28;91341;-59
2021/12/09 07:06:21;;;;;;;12.63;8.82;;;-6.60;76.60;-7.40;99170.00;;;;4978981;28;92646;-54
2021/12/09 07:08:49;;;;;;;13.27;8.50;;;-6.60;76.40;-7.30;99181.00;;;;4978810;28;92833;-60
2021/12/09 07:11:19;;;;;;;12.18;8.90;;;-6.60;76.40;-7.30;99163.00;;;;4978779;28;93026;-60
2021/12/09 07:13:48;;;;;;;11.82;8.90;;;-6.60;76.30;-7.30;99165.00;;;;4978985;28;92283;-54
2021/12/09 07:16:15;;;;;;;14.90;9.00;;;-6.60;76.30;-7.30;99182.00;;;;4978774;28;92065;-56
2021/12/09 07:18:41;;;;;;;9.93;8.77;;;-6.60;76.30;-7.30;99174.00;;;;4977058;28;93407;-57
2021/12/09 07:21:08;;;;;;;12.07;8.85;;;-6.60;76.60;-7.30;99183.00;;;;4978336;28;92376;-54
2021/12/09 07:23:34;;;;;;;12.18;8.73;;;-6.50;76.50;-7.20;99183.00;;;;4971701;28;92023;-53
2021/12/09 07:26:01;;;;;;;11.50;8.50;;;-6.50;76.40;-7.20;99178.00;;;;4978920;28;92595;-61
2021/12/09 07:28:27;;;;;;;13.02;8.40;;;-6.50;76.40;-7.20;99191.00;;;;4979146;28;93423;-61
2021/12/09 07:30:53;;;;;;;11.48;8.80;;;-6.50;76.50;-7.20;99188.00;;;;4979439;28;92425;-56
2021/12/09 07:33:19;;;;;;;11.60;8.77;;;-6.40;76.60;-7.20;99196.00;;;;4970737;28;92165;-60
2021/12/09 07:35:46;;;;;;;10.70;8.07;;;-6.40;76.50;-7.10;99204.00;;;;4958126;28;93337;-55
2021/12/09 07:38:12;;;;;;;10.30;8.23;;;-6.30;76.40;-7.00;99208.00;;;;4959417;28;93687;-54
2021/12/09 07:40:38;;;;;;;10.52;8.35;;;-6.30;76.50;-7.00;99210.00;;;;4960004;28;91880;-57
2021/12/09 07:43:05;;;;;;;11.23;7.53;;;-6.30;76.30;-7.00;99211.00;;;;4974424;28;92597;-60
2021/12/09 07:45:32;;;;;;;9.85;7.55;;;-6.30;75.90;-7.10;99204.00;;;;4957973;28;96010;-54
2021/12/09 07:47:59;;;;;;;10.30;7.80;;;-6.30;75.50;-7.00;99209.00;;;;4958781;28;93530;-57
2021/12/09 07:50:31;;;;;;;10.48;7.05;;;-6.30;76.00;-7.00;99214.00;;;;4961723;28;92085;-59
2021/12/09 07:52:59;;;;;;;8.65;7.40;;;-6.30;76.00;-7.00;99214.00;;;;4971479;28;91755;-57
2021/12/09 07:55:26;;;;;;;10.23;7.85;;;-6.30;75.50;-7.00;99204.00;;;;4957913;28;92518;-56
2021/12/09 07:57:53;;;;;;;12.55;8.68;;;-6.20;76.00;-6.90;99204.00;;;;4958524;28;91988;-56
2021/12/09 08:00:25;;;;;;;12.18;8.02;;;-6.20;75.60;-6.90;99221.00;;;;4958761;28;93191;-55
2021/12/09 08:02:53;;;;;;;10.07;8.02;;;-6.20;75.40;-6.90;99218.00;;;;4959389;28;92016;-55
2021/12/09 08:05:22;;;;;;;11.13;7.85;;;-6.10;75.70;-6.90;99213.00;;;;4958496;28;92571;-60
2021/12/09 08:07:48;;;;;;;10.43;8.35;;;-6.10;75.60;-6.80;99225.00;;;;4974240;28;92217;-58
2021/12/09 08:10:17;;;;;;;10.68;7.97;;;-6.10;75.10;-6.80;99218.00;;;;4958542;28;92132;-59
2021/12/09 08:12:44;;;;;;;9.77;7.30;;;-6.10;74.50;-6.80;99212.00;;;;4958869;28;91990;-63
2021/12/09 08:15:12;;;;;;;10.00;7.68;;;-6.10;75.00;-6.80;99216.00;;;;4974601;28;92949;-58
2021/12/09 08:20:15;;;;;;;11.63;8.02;;;-6.00;75.10;-6.70;99217.00;;;;4978568;28;92030;-58
2021/12/09 08:22:43;;;;;;;10.55;7.68;;;-5.90;74.80;-6.60;99220.00;;;;4972740;28;92018;-55
2021/12/09 08:25:13;;;;;;;9.55;7.43;;;-5.90;74.60;-6.60;99216.00;;;;4961403;28;93488;-58
2021/12/09 08:27:45;;;;;;;9.52;7.32;;;-5.90;74.40;-6.50;99218.00;;;;4958209;28;93178;-62
2021/12/09 08:30:20;;;;;;;9.05;7.80;;;-5.90;74.30;-6.40;99220.00;;;;4959014;28;92063;-57
2021/12/09 08:32:46;;;;;;;10.80;8.13;;;-5.70;74.50;-6.50;99211.00;;;;4959010;28;92145;-60
2021/12/09 08:35:15;;;;;;;9.43;7.45;;;-5.80;73.60;-6.50;99227.00;;;;4958790;28;92660;-62
2021/12/09 08:37:43;;;;;;;10.90;7.80;;;-5.80;73.90;-6.50;99234.00;;;;4957442;28;92861;-58
2021/12/09 08:40:10;;;;;;;9.80;7.60;;;-5.90;73.70;-6.50;99222.00;;;;4941729;28;92128;-56
2021/12/09 08:42:36;;;;;;;8.45;7.07;;;-5.80;73.80;-6.60;99234.00;;;;4958800;28;91441;-58
2021/12/09 08:45:06;;;;;;;10.48;7.70;;;-5.80;73.90;-6.60;99229.00;;;;4958173;28;94092;-59
2021/12/09 08:47:32;;;;;;;11.55;7.47;;;-5.80;73.90;-6.50;99228.00;;;;4957371;28;92223;-58
2021/12/09 08:49:59;;;;;;;11.93;7.82;;;-5.80;73.90;-6.60;99232.00;;;;4956872;28;92896;-58
2021/12/09 08:52:25;;;;;;;10.13;7.40;;;-5.80;73.50;-6.50;99227.00;;;;4975146;28;92331;-59
2021/12/09 08:54:51;;;;;;;13.02;8.23;;;-5.80;73.60;-6.50;99224.00;;;;4977928;28;92672;-57
2021/12/09 08:57:19;;;;;;;10.27;7.45;;;-5.80;73.40;-6.40;99231.00;;;;4960530;28;92287;-55
2021/12/09 08:59:45;;;;;;;10.27;7.75;;;-5.70;73.40;-6.40;99217.00;;;;4958365;28;91907;-55
2021/12/09 09:02:14;;;;;;;13.48;8.98;;;-5.60;73.60;-6.30;99228.00;;;;4958414;28;92289;-58
2021/12/09 09:04:40;;;;;;;14.93;9.35;;;-5.60;73.60;-6.30;99223.00;;;;4957605;28;93248;-62
2021/12/09 09:07:08;;;;;;;13.02;9.35;;;-5.60;72.10;-6.40;99221.00;;;;4958554;28;93698;-61
2021/12/09 09:09:37;;;;;;;13.25;8.98;;;-5.60;71.90;-6.50;99224.00;;;;4956872;28;92249;-61
2021/12/09 09:12:07;;;;;;;13.10;9.40;;;-5.80;71.70;-6.60;99229.00;;;;4957510;28;93365;-60
2021/12/09 09:14:35;;;;;;;14.30;9.02;;;-5.90;71.60;-6.70;99224.00;;;;4957538;28;92989;-61
2021/12/09 09:17:01;;;;;;;16.10;9.65;;;-6.00;72.10;-6.80;99214.00;;;;4961884;28;94433;-62
2021/12/09 09:19:27;;;;;;;12.13;9.60;;;-6.10;72.30;-7.00;99229.00;;;;4958478;28;92028;-62
2021/12/09 09:21:53;;;;;;;12.02;9.20;;;-6.20;72.50;-7.10;99201.00;;;;4957498;28;92044;-61
2021/12/09 09:24:20;;;;;;;12.15;8.82;;;-6.30;72.80;-7.10;99226.00;;;;4972547;28;93170;-61
2021/12/09 09:26:46;;;;;;;12.10;8.20;;;-6.40;72.60;-7.10;99224.00;;;;4960364;28;92323;-62
2021/12/09 09:29:13;;;;;;;12.55;8.43;;;-6.30;73.00;-7.10;99220.00;;;;4959585;28;92164;-61
2021/12/09 09:31:40;;;;;;;14.18;9.68;;;-6.30;72.80;-7.20;99225.00;;;;4970560;28;91848;-61
2021/12/09 09:34:07;;;;;;;10.75;9.25;;;-6.40;72.60;-7.20;99228.00;;;;4969604;28;92334;-61
2021/12/09 09:36:39;;;;;;;12.38;9.48;;;-6.40;72.20;-7.20;99226.00;;;;4969570;28;92458;-62
2021/12/09 09:39:16;;;;;;;12.00;8.57;;;-6.30;71.90;-7.10;99225.00;;;;4970577;28;93343;-61
2021/12/09 09:41:54;;;;;;;12.15;8.68;;;-6.30;71.80;-7.10;99229.00;;;;4969750;28;92060;-60
2021/12/09 09:44:27;;;;;;;10.70;8.52;;;-6.30;71.20;-7.10;99235.00;;;;4971583;28;92695;-62
2021/12/09 09:47:00;;;;;;;12.15;9.02;;;-6.30;70.60;-7.10;99222.00;;;;4971377;28;92933;-53
2021/12/09 09:49:26;;;;;;;13.80;9.18;;;-6.30;71.10;-7.10;99226.00;;;;4970803;28;93243;-55
2021/12/09 09:51:57;;;;;;;12.00;8.88;;;-6.30;70.40;-7.10;99227.00;;;;4977735;28;92361;-55
2021/12/09 09:54:25;;;;;;;12.30;8.85;;;-6.20;70.80;-7.00;99232.00;;;;4980386;28;92586;-55
2021/12/09 09:56:53;;;;;;;12.95;9.45;;;-6.30;70.10;-7.00;99234.00;;;;4981521;28;93542;-57
2021/12/09 09:59:19;;;;;;;12.88;9.02;;;-6.20;69.80;-7.00;99239.00;;;;4960300;28;92005;-57
2021/12/09 10:01:52;;;;;;;13.13;9.13;;;-6.30;69.00;-7.10;99239.00;;;;4961299;28;92041;-55
2021/12/09 10:04:26;;;;;;;11.98;8.80;;;-6.30;69.20;-7.10;99231.00;;;;4960176;28;94675;-62
2021/12/09 10:06:53;;;;;;;14.70;8.55;;;-6.30;68.90;-7.10;99229.00;;;;4960580;28;93331;-62
2021/12/09 10:09:19;;;;;;;14.05;8.82;;;-6.30;68.90;-7.10;99224.00;;;;4960765;28;92183;-60
2021/12/09 10:11:46;;;;;;;13.02;8.60;;;-6.30;68.90;-7.20;99241.00;;;;4960705;28;92812;-60
2021/12/09 10:14:15;;;;;;;11.20;8.30;;;-6.40;68.50;-7.20;99225.00;;;;4975767;28;92640;-60
2021/12/09 10:16:42;;;;;;;11.88;8.85;;;-6.40;68.60;-7.10;99218.00;;;;4966971;28;92535;-61
2021/12/09 10:19:41;;;;;;;11.30;8.82;;;-6.30;68.90;-7.10;99229.00;;;;4960924;28;92419;-60
2021/12/09 10:22:13;;;;;;;11.10;8.10;;;-6.30;68.90;-7.10;99220.00;;;;4961002;28;91750;-61
2021/12/09 10:24:44;;;;;;;12.40;8.82;;;-6.30;68.50;-7.10;99230.00;;;;4961180;28;92659;-56
2021/12/09 10:27:26;;;;;;;13.05;9.13;;;-6.20;68.60;-7.10;99224.00;;;;4960038;28;92310;-56
2021/12/09 10:30:07;;;;;;;10.93;8.20;;;-6.20;68.30;-7.00;99224.00;;;;4960028;28;92923;-59
2021/12/09 10:32:35;;;;;;;12.93;8.40;;;-6.20;68.10;-7.00;99238.00;;;;4960969;28;91937;-56
2021/12/09 10:35:21;;;;;;;12.30;8.75;;;-6.20;67.80;-7.00;99230.00;;;;4959909;28;93114;-59
2021/12/09 10:37:50;;;;;;;15.18;8.95;;;-6.20;67.60;-7.00;99233.00;;;;4960091;28;93160;-56
2021/12/09 10:40:18;;;;;;;11.07;8.00;;;-6.20;66.70;-7.00;99224.00;;;;4942978;28;92364;-54
2021/12/09 10:42:55;;;;;;;10.68;8.07;;;-6.20;66.50;-7.00;99217.00;;;;4977391;28;92624;-54
2021/12/09 10:45:37;;;;;;;11.25;8.27;;;-6.20;66.70;-7.00;99217.00;;;;4979614;28;92559;-62
2021/12/09 10:48:27;;;;;;;10.82;8.18;;;-6.20;66.30;-7.00;99229.00;;;;4979683;28;93560;-62
2021/12/09 10:53:46;;;;;;;10.55;7.43;;;-6.20;65.70;-7.00;99234.00;;;;4975384;28;92146;-62
2021/12/09 10:56:24;;;;;;;10.32;8.10;;;-6.20;65.70;-7.00;99249.00;;;;4965752;28;94669;-63
2021/12/09 10:58:50;;;;;;;10.73;7.78;;;-6.20;65.30;-7.00;99258.00;;;;4975884;28;93350;-62
2021/12/09 11:01:21;;;;;;;10.98;8.10;;;-6.20;65.60;-7.00;99261.00;;;;4979877;28;92323;-61